Time;durP1;ratioP1;P1;durP2;ratioP2;P2;SDS_P1;SDS_P2;PMS_P1;PMS_P2;Temp;Humidity;BMP_temperature;BMP_pressure;BME280_temperature;BME280_humidity;BME280_pressure;Samples;Min_cycle;Max_cycle;Signal;HPM_P1;HPM_P2
2022/04/10 00:01:51;;;;;;;12.07;2.83;;;;;;;1.51;100.00;147825.91;5024110;28;20037;-68
2022/04/10 00:04:16;;;;;;;7.27;1.80;;;;;;;1.56;100.00;147840.03;5024707;28;20033;-68
2022/04/10 00:06:41;;;;;;;9.47;3.10;;;;;;;1.46;100.00;147814.38;5009892;28;20033;-68
2022/04/10 00:09:07;;;;;;;8.20;2.90;;;;;;;1.53;100.00;147832.31;5026077;28;20493;-68
2022/04/10 00:11:32;;;;;;;12.43;2.97;;;;;;;1.55;100.00;147836.19;5025886;28;20396;-68
2022/04/10 00:13:58;;;;;;;12.47;3.03;;;;;;;1.68;100.00;147870.88;5027402;28;20033;-68
2022/04/10 00:16:24;;;;;;;13.47;2.50;;;;;;;1.74;100.00;147886.31;5023308;28;20036;-68
2022/04/10 00:18:51;;;;;;;8.60;3.37;;;;;;;1.82;100.00;147904.28;5027699;28;20041;-68
2022/04/10 00:21:17;;;;;;;10.87;2.80;;;;;;;1.88;100.00;147919.72;5027953;28;20037;-68
2022/04/10 00:23:42;;;;;;;13.57;3.27;;;;;;;1.88;100.00;147919.72;5025033;28;21113;-68
2022/04/10 00:26:09;;;;;;;13.77;4.03;;;;;;;1.96;100.00;147941.59;5025699;28;20044;-68
2022/04/10 00:28:34;;;;;;;13.67;3.00;;;;;;;1.88;100.00;147919.72;5009106;28;20048;-69
2022/04/10 00:31:00;;;;;;;16.10;2.90;;;;;;;1.82;100.00;147904.28;5027866;28;20038;-68
2022/04/10 00:33:26;;;;;;;13.53;3.10;;;;;;;1.74;100.00;147886.31;5023931;28;20033;-68
2022/04/10 00:35:51;;;;;;;13.20;3.33;;;;;;;1.69;100.00;147873.44;5024348;28;20036;-68
2022/04/10 00:38:17;;;;;;;14.17;3.20;;;;;;;1.61;100.00;147852.91;5024222;28;20056;-68
2022/04/10 00:40:42;;;;;;;10.17;2.63;;;;;;;1.65;100.00;147861.88;5027735;28;20393;-68
2022/04/10 00:43:08;;;;;;;10.87;2.87;;;;;;;1.66;100.00;147865.72;5028943;28;20386;-68
2022/04/10 00:45:33;;;;;;;17.17;3.17;;;;;;;1.63;100.00;147858.03;5027126;28;20033;-68
2022/04/10 00:47:59;;;;;;;10.03;3.00;;;;;;;1.68;100.00;147869.56;5030137;28;20030;-68
2022/04/10 00:50:25;;;;;;;12.10;2.80;;;;;;;1.73;100.00;147882.47;5027478;28;20112;-68
2022/04/10 00:52:50;;;;;;;9.87;2.23;;;;;;;1.74;100.00;147886.31;5025363;28;20036;-68
2022/04/10 00:55:17;;;;;;;16.90;3.50;;;;;;;1.77;100.00;147894.00;5027373;28;20388;-68
2022/04/10 00:57:46;;;;;;;9.20;2.80;;;;;;;1.87;100.00;147917.16;5029503;28;20422;-68
2022/04/10 01:00:13;;;;;;;16.33;3.03;;;;;;;1.95;100.00;147937.72;5024350;28;20033;-68
2022/04/10 01:02:39;;;;;;;7.43;2.97;;;;;;;1.98;100.00;147945.44;5030459;28;20482;-68
2022/04/10 01:05:05;;;;;;;13.40;2.93;;;;;;;1.98;100.00;147946.72;5026285;28;20422;-68
2022/04/10 01:07:31;;;;;;;9.47;2.80;;;;;;;2.03;100.00;147958.25;5028813;28;20052;-68
2022/04/10 01:09:57;;;;;;;10.60;2.90;;;;;;;1.97;100.00;147944.16;5021490;28;20032;-68
2022/04/10 01:12:23;;;;;;;9.90;3.00;;;;;;;1.97;100.00;147942.88;5028054;28;20048;-68
2022/04/10 01:14:50;;;;;;;9.07;2.80;;;;;;;1.96;100.00;147940.31;5026306;28;20044;-68
2022/04/10 01:17:16;;;;;;;9.57;2.47;;;;;;;1.94;100.00;147935.13;5030072;28;20029;-68
2022/04/10 01:19:42;;;;;;;11.53;3.17;;;;;;;1.87;100.00;147917.16;5028520;28;20025;-68
2022/04/10 01:22:09;;;;;;;13.40;3.40;;;;;;;1.90;100.00;147924.84;5025883;28;20393;-68
2022/04/10 01:24:40;;;;;;;8.87;2.67;;;;;;;2.00;100.00;147950.56;5026089;28;20037;-68
2022/04/10 01:27:07;;;;;;;15.05;3.72;;;;;;;2.03;100.00;147958.25;5028830;28;20048;-68
2022/04/10 01:29:33;;;;;;;16.97;3.37;;;;;;;2.05;100.00;147963.41;5031127;28;20087;-68
2022/04/10 01:31:59;;;;;;;17.93;3.60;;;;;;;2.13;100.00;147983.97;5027211;28;20521;-68
2022/04/10 01:34:25;;;;;;;15.80;2.83;;;;;;;2.15;100.00;147987.84;5024777;28;20040;-68
2022/04/10 01:36:50;;;;;;;11.17;3.10;;;;;;;2.08;100.00;147969.88;5028508;28;20025;-68
2022/04/10 01:39:16;;;;;;;14.43;3.00;;;;;;;1.98;100.00;147946.72;5028228;28;20022;-68
2022/04/10 01:41:42;;;;;;;21.27;3.60;;;;;;;1.82;100.00;147904.28;5027891;28;20037;-68
2022/04/10 01:44:09;;;;;;;14.30;3.60;;;;;;;1.69;100.00;147873.44;5021313;28;20036;-68
2022/04/10 01:46:36;;;;;;;12.33;3.10;;;;;;;1.68;100.00;147869.56;5024582;28;20021;-68
2022/04/10 01:49:03;;;;;;;11.20;2.83;;;;;;;1.65;100.00;147863.16;5027018;28;20473;-68
2022/04/10 01:51:28;;;;;;;14.17;3.43;;;;;;;1.61;100.00;147852.91;5028992;28;20035;-68
2022/04/10 01:53:55;;;;;;;15.93;3.10;;;;;;;1.62;100.00;147855.47;5004703;28;20377;-68
2022/04/10 01:56:21;;;;;;;14.13;3.10;;;;;;;1.60;100.00;147850.34;5026123;28;20029;-68
2022/04/10 01:58:48;;;;;;;13.47;3.23;;;;;;;1.66;100.00;147865.72;5028211;28;20464;-68
2022/04/10 02:01:15;;;;;;;15.03;2.60;;;;;;;1.73;100.00;147882.47;5026561;28;20037;-68
2022/04/10 02:03:41;;;;;;;11.80;2.90;;;;;;;1.84;100.00;147910.75;5021595;28;20057;-68
2022/04/10 02:06:08;;;;;;;13.37;2.90;;;;;;;1.89;100.00;147922.28;5024535;28;20041;-68
2022/04/10 02:08:37;;;;;;;12.30;2.67;;;;;;;1.99;100.00;147949.28;5024027;28;20026;-68
2022/04/10 02:11:12;;;;;;;15.33;3.37;;;;;;;2.04;100.00;147960.84;5021458;28;20033;-68
2022/04/10 02:13:39;;;;;;;17.30;3.20;;;;;;;2.03;100.00;147958.25;5021653;28;20029;-68
2022/04/10 02:16:06;;;;;;;14.53;3.07;;;;;;;2.04;100.00;147960.84;5023039;28;20037;-68
2022/04/10 02:18:32;;;;;;;10.23;3.17;;;;;;;2.01;100.00;147953.13;5024327;28;20026;-68
2022/04/10 02:20:57;;;;;;;18.77;3.03;;;;;;;2.00;100.00;147950.56;5026377;28;20500;-68
2022/04/10 02:23:22;;;;;;;12.57;3.27;;;;;;;1.97;100.00;147942.88;5024442;28;20056;-68
2022/04/10 02:25:48;;;;;;;18.10;3.57;;;;;;;1.95;100.00;147939.00;5028456;28;20419;-69
2022/04/10 02:28:13;;;;;;;13.73;3.67;;;;;;;1.97;100.00;147942.88;5024542;28;20029;-69
2022/04/10 02:30:38;;;;;;;16.13;3.13;;;;;;;1.99;100.00;147948.00;5026688;28;20104;-69
2022/04/10 02:33:04;;;;;;;17.53;3.40;;;;;;;2.00;100.00;147950.56;5028052;28;20032;-69
2022/04/10 02:35:29;;;;;;;12.87;3.17;;;;;;;1.98;100.00;147946.72;5026352;28;20067;-69
2022/04/10 02:37:55;;;;;;;21.20;3.37;;;;;;;1.98;100.00;147945.44;5028880;28;20026;-69
2022/04/10 02:40:20;;;;;;;20.93;4.23;;;;;;;1.92;100.00;147931.25;5028603;28;20492;-69
2022/04/10 02:42:45;;;;;;;17.17;4.47;;;;;;;1.76;100.00;147891.44;5028113;28;20457;-69
2022/04/10 02:45:11;;;;;;;19.87;3.30;;;;;;;1.60;100.00;147850.34;5020181;28;20064;-70
2022/04/10 02:47:37;;;;;;;14.33;3.20;;;;;;;1.48;100.00;147819.50;5029143;28;20370;-69
2022/04/10 02:50:04;;;;;;;18.03;3.50;;;;;;;1.54;100.00;147833.59;5026635;28;20374;-69
2022/04/10 02:52:30;;;;;;;15.90;3.67;;;;;;;1.59;100.00;147847.78;5028091;28;20062;-69
2022/04/10 02:54:55;;;;;;;12.60;3.37;;;;;;;1.39;100.00;147796.38;5026937;28;20033;-69
2022/04/10 02:57:20;;;;;;;17.20;3.60;;;;;;;1.41;100.00;147801.50;5028490;28;20112;-69
2022/04/10 02:59:46;;;;;;;12.37;2.80;;;;;;;1.53;100.00;147832.31;5025629;28;20033;-69
2022/04/10 03:02:11;;;;;;;12.50;3.00;;;;;;;1.53;100.00;147832.31;5028718;28;20032;-69
2022/04/10 03:04:36;;;;;;;18.37;3.30;;;;;;;1.43;100.00;147806.63;5027634;28;20086;-69
2022/04/10 03:07:02;;;;;;;11.13;2.40;;;;;;;1.38;100.00;147793.81;5028581;28;20032;-69
2022/04/10 03:09:28;;;;;;;10.40;2.30;;;;;;;1.46;100.00;147814.38;5017360;28;20497;-68
2022/04/10 03:11:53;;;;;;;7.33;2.30;;;;;;;1.38;100.00;147793.81;5025320;28;20033;-69
2022/04/10 03:14:19;;;;;;;14.90;2.90;;;;;;;1.31;100.00;147775.78;5026464;28;20429;-69
2022/04/10 03:16:44;;;;;;;14.47;2.50;;;;;;;1.29;100.00;147770.66;5030162;28;20473;-69
2022/04/10 03:19:09;;;;;;;15.63;3.53;;;;;;;1.23;100.00;147755.28;5028911;28;20768;-68
2022/04/10 03:21:35;;;;;;;11.00;2.70;;;;;;;1.34;100.00;147783.53;5014342;28;20124;-68
2022/04/10 03:24:01;;;;;;;16.47;3.37;;;;;;;1.39;100.00;147796.38;5033258;28;20047;-68
2022/04/10 03:26:28;;;;;;;10.83;2.67;;;;;;;1.34;100.00;147783.53;5031648;28;20029;-68
2022/04/10 03:28:53;;;;;;;15.57;3.87;;;;;;;1.40;100.00;147798.94;5027376;28;20108;-68
2022/04/10 03:31:20;;;;;;;8.03;2.23;;;;;;;1.48;100.00;147818.22;5027586;28;20108;-68
2022/04/10 03:33:46;;;;;;;11.60;3.20;;;;;;;1.50;100.00;147824.63;5028929;28;20026;-68
2022/04/10 03:36:12;;;;;;;18.10;3.67;;;;;;;1.53;100.00;147832.31;5032141;28;20094;-68
2022/04/10 03:38:37;;;;;;;17.93;3.70;;;;;;;1.59;100.00;147846.50;5026679;28;20026;-68
2022/04/10 03:41:04;;;;;;;12.63;3.20;;;;;;;1.64;100.00;147860.59;5027003;28;20036;-68
2022/04/10 03:43:29;;;;;;;9.63;2.63;;;;;;;1.55;100.00;147836.19;5032152;28;20048;-68
2022/04/10 03:45:54;;;;;;;9.73;2.27;;;;;;;1.56;100.00;147840.03;5031394;28;20061;-68
2022/04/10 03:48:20;;;;;;;17.27;2.70;;;;;;;1.55;100.00;147837.47;5027077;28;20381;-68
2022/04/10 03:50:45;;;;;;;13.27;2.80;;;;;;;1.50;100.00;147824.63;5031372;28;20072;-68
2022/04/10 03:53:11;;;;;;;12.80;2.80;;;;;;;1.53;100.00;147832.31;5031709;28;20026;-68
2022/04/10 03:55:36;;;;;;;12.87;2.80;;;;;;;1.52;100.00;147829.75;5030585;28;20485;-68
2022/04/10 03:58:01;;;;;;;14.27;2.67;;;;;;;1.47;100.00;147816.94;5030813;28;20083;-68
2022/04/10 04:00:27;;;;;;;12.83;2.37;;;;;;;1.51;100.00;147825.91;5027417;28;20021;-68
2022/04/10 04:02:52;;;;;;;17.47;3.13;;;;;;;1.46;100.00;147814.38;5031254;28;20374;-68
2022/04/10 04:05:18;;;;;;;19.57;3.47;;;;;;;1.38;100.00;147793.81;5029387;28;20029;-68
2022/04/10 04:07:43;;;;;;;14.40;3.10;;;;;;;1.41;100.00;147801.50;5030667;28;20152;-68
2022/04/10 04:10:09;;;;;;;14.37;3.33;;;;;;;1.43;100.00;147806.63;5030673;28;20029;-68
2022/04/10 04:12:35;;;;;;;14.60;2.93;;;;;;;1.35;100.00;147786.09;5031200;28;20031;-68
2022/04/10 04:15:00;;;;;;;13.80;2.40;;;;;;;1.39;100.00;147797.66;5027680;28;20397;-68
2022/04/10 04:17:26;;;;;;;11.70;2.30;;;;;;;1.47;100.00;147816.94;5030760;28;20022;-68
2022/04/10 04:19:51;;;;;;;15.70;3.30;;;;;;;1.45;100.00;147811.75;5031048;28;20437;-68
2022/04/10 04:22:17;;;;;;;16.93;3.10;;;;;;;1.46;100.00;147815.66;5027392;28;20021;-69
2022/04/10 04:24:43;;;;;;;15.33;2.70;;;;;;;1.41;100.00;147801.50;5027007;28;20035;-68
2022/04/10 04:27:09;;;;;;;13.53;2.33;;;;;;;1.52;100.00;147828.47;5029841;28;20071;-68
2022/04/10 04:29:34;;;;;;;14.60;3.63;;;;;;;1.65;100.00;147863.16;5019943;28;20030;-68
2022/04/10 04:32:00;;;;;;;13.93;2.90;;;;;;;1.51;100.00;147827.19;5031227;28;20063;-68
2022/04/10 04:34:26;;;;;;;15.17;2.70;;;;;;;1.58;100.00;147845.22;5030874;28;20029;-68
2022/04/10 04:36:51;;;;;;;16.00;2.77;;;;;;;1.55;100.00;147836.19;5031947;28;20018;-68
2022/04/10 04:39:17;;;;;;;9.93;1.77;;;;;;;1.94;100.00;147935.13;5029072;28;20040;-68
2022/04/10 04:41:42;;;;;;;14.43;2.83;;;;;;;1.88;100.00;147921.00;5030023;28;20052;-68
2022/04/10 04:44:07;;;;;;;13.63;3.13;;;;;;;1.90;100.00;147924.84;5029818;28;20079;-68
2022/04/10 04:46:33;;;;;;;8.47;2.73;;;;;;;1.62;100.00;147855.47;5029895;28;20029;-70
2022/04/10 04:48:58;;;;;;;9.17;2.27;;;;;;;1.46;100.00;147814.38;5030612;28;20036;-69
2022/04/10 04:51:24;;;;;;;9.13;2.23;;;;;;;1.47;100.00;147816.94;5028634;28;20432;-69
2022/04/10 04:53:49;;;;;;;12.60;2.37;;;;;;;1.36;100.00;147789.94;5030907;28;20101;-69
2022/04/10 04:56:15;;;;;;;11.90;1.77;;;;;;;1.28;100.00;147769.38;5029416;28;20028;-69
2022/04/10 04:58:41;;;;;;;10.47;2.30;;;;;;;1.15;100.00;147737.28;5029089;28;20037;-69
2022/04/10 05:01:07;;;;;;;9.23;2.50;;;;;;;1.04;100.00;147709.00;5029211;28;20029;-69
2022/04/10 05:03:32;;;;;;;18.77;2.80;;;;;;;1.00;100.00;147698.75;5016270;28;20053;-69
2022/04/10 05:05:58;;;;;;;12.73;2.53;;;;;;;1.16;100.00;147739.84;5030499;28;20041;-69
2022/04/10 05:08:23;;;;;;;13.70;2.73;;;;;;;1.34;100.00;147783.53;5026727;28;20033;-68
2022/04/10 05:10:48;;;;;;;18.73;2.97;;;;;;;1.61;100.00;147852.91;5029857;28;20033;-68
2022/04/10 05:13:14;;;;;;;18.13;3.43;;;;;;;1.87;100.00;147918.44;5028729;28;20057;-68
2022/04/10 05:15:39;;;;;;;15.90;2.60;;;;;;;2.01;100.00;147954.41;5026258;28;20033;-68
2022/04/10 05:18:05;;;;;;;13.00;3.10;;;;;;;2.19;100.00;147998.16;5027398;28;20091;-68
2022/04/10 05:20:30;;;;;;;14.73;2.80;;;;;;;2.28;100.00;148022.53;5028767;28;20033;-68
2022/04/10 05:22:56;;;;;;;17.47;3.20;;;;;;;2.30;100.00;148027.72;5026068;28;20029;-68
2022/04/10 05:25:22;;;;;;;14.17;2.67;;;;;;;2.24;100.00;148012.28;5029262;28;20636;-68
2022/04/10 05:27:47;;;;;;;14.10;2.87;;;;;;;2.22;100.00;148007.13;5027598;28;20060;-68
2022/04/10 05:30:13;;;;;;;11.70;1.83;;;;;;;2.22;100.00;148007.13;5025089;28;20470;-68
2022/04/10 05:32:42;;;;;;;7.87;2.57;;;;;;;2.19;100.00;147998.16;5027652;28;20124;-69
2022/04/10 05:35:11;;;;;;;17.70;3.80;;;;;;;2.16;100.00;147990.41;5029882;28;20382;-68
2022/04/10 05:37:37;;;;;;;7.23;2.00;;;;;;;2.09;100.00;147972.44;5031467;28;20049;-68
2022/04/10 05:40:04;;;;;;;10.67;2.27;;;;;;;1.99;100.00;147948.00;5028471;28;20029;-68
2022/04/10 05:42:29;;;;;;;14.27;2.50;;;;;;;1.95;100.00;147937.72;5023809;28;20029;-68
2022/04/10 05:45:02;;;;;;;8.13;2.10;;;;;;;1.97;100.00;147942.88;5025265;28;20492;-68
2022/04/10 05:47:27;;;;;;;12.30;2.70;;;;;;;2.07;100.00;147967.31;5029695;28;20048;-68
2022/04/10 05:49:53;;;;;;;17.60;2.63;;;;;;;2.18;100.00;147995.53;5027169;28;20029;-68
2022/04/10 05:52:18;;;;;;;13.60;3.00;;;;;;;2.63;100.00;148110.00;5028215;28;20108;-68
2022/04/10 05:54:43;;;;;;;13.50;2.37;;;;;;;3.17;100.00;148246.38;5024723;28;20079;-68
2022/04/10 05:57:09;;;;;;;11.47;2.03;;;;;;;3.61;100.00;148357.03;5026648;28;21155;-69
2022/04/10 05:59:34;;;;;;;13.20;2.43;;;;;;;3.53;100.00;148339.03;5033115;28;20056;-69
2022/04/10 06:02:00;;;;;;;9.33;2.00;;;;;;;2.92;100.00;148183.34;5026061;28;20025;-68
2022/04/10 06:04:26;;;;;;;15.93;2.53;;;;;;;2.54;100.00;148086.81;5037645;28;20029;-68
2022/04/10 06:06:51;;;;;;;16.10;3.60;;;;;;;2.64;100.00;148113.84;5027200;28;20044;-68
2022/04/10 06:09:16;;;;;;;10.47;3.20;;;;;;;2.69;100.00;148125.44;5027719;28;20033;-68
2022/04/10 06:11:42;;;;;;;11.83;2.60;;;;;;;2.56;100.00;148092.00;5028836;28;20467;-68
2022/04/10 06:14:07;;;;;;;14.87;3.37;;;;;;;2.51;100.00;148080.41;5024146;28;20025;-68
2022/04/10 06:16:32;;;;;;;8.77;1.93;;;;;;;2.53;100.00;148084.25;5027685;28;20041;-68
2022/04/10 06:18:58;;;;;;;10.37;2.50;;;;;;;2.64;100.00;148112.56;5021327;28;20405;-68
2022/04/10 06:21:23;;;;;;;8.03;2.77;;;;;;;2.86;100.00;148169.16;5025130;28;20079;-68
2022/04/10 06:23:48;;;;;;;15.30;2.90;;;;;;;2.84;100.00;148164.03;5027668;28;20063;-68
2022/04/10 06:26:14;;;;;;;14.27;3.10;;;;;;;3.03;100.00;148210.31;5028331;28;20048;-68
2022/04/10 06:28:39;;;;;;;12.10;2.30;;;;;;;3.19;100.00;148252.81;5029770;28;20052;-68
2022/04/10 06:31:04;;;;;;;7.20;1.83;;;;;;;3.17;100.00;148246.38;5026621;28;20029;-68
2022/04/10 06:33:30;;;;;;;12.43;2.87;;;;;;;2.98;100.00;148197.47;5026669;28;20060;-68
2022/04/10 06:35:55;;;;;;;21.50;3.17;;;;;;;2.90;100.00;148179.44;5028478;28;20095;-68
2022/04/10 06:38:21;;;;;;;18.07;3.30;;;;;;;2.78;100.00;148147.28;5028724;28;20576;-68
2022/04/10 06:40:48;;;;;;;11.40;3.00;;;;;;;2.64;100.00;148112.56;5027400;28;20025;-68
2022/04/10 06:43:13;;;;;;;12.60;2.70;;;;;;;2.63;100.00;148110.00;5026207;28;20037;-68
2022/04/10 06:45:39;;;;;;;12.10;2.73;;;;;;;2.66;100.00;148117.69;5027653;28;20272;-68
2022/04/10 06:48:06;;;;;;;13.30;2.80;;;;;;;2.64;100.00;148112.56;5026236;28;20033;-68
2022/04/10 06:50:31;;;;;;;12.57;2.70;;;;;;;2.76;100.00;148143.44;5029188;28;20033;-68
2022/04/10 06:52:57;;;;;;;13.77;3.07;;;;;;;3.56;100.00;148345.47;5025442;28;21489;-69
2022/04/10 06:55:22;;;;;;;12.60;2.87;;;;;;;4.56;100.00;148599.16;5031674;28;20033;-69
2022/04/10 06:57:48;;;;;;;6.60;1.87;;;;;;;4.75;100.00;148646.84;5031847;28;20120;-70
2022/04/10 07:00:14;;;;;;;10.30;2.40;;;;;;;4.67;100.00;148626.22;5028608;28;20095;-69
2022/04/10 07:02:39;;;;;;;12.40;2.20;;;;;;;4.58;100.00;148604.31;5029938;28;20041;-70
2022/04/10 07:05:05;;;;;;;10.03;2.50;;;;;;;4.16;100.00;148496.13;5025539;28;20179;-69
2022/04/10 07:07:31;;;;;;;11.27;2.40;;;;;;;5.50;100.00;148836.34;5025553;28;20029;-70
2022/04/10 07:09:58;;;;;;;9.43;1.70;;;;;;;5.92;100.00;144564.34;5023577;28;20029;-70
2022/04/10 07:12:23;;;;;;;9.60;2.30;;;;;;;5.81;100.00;132453.44;5013099;28;20040;-70
2022/04/10 07:14:49;;;;;;;8.37;1.97;;;;;;;6.92;100.00;125659.56;5021378;28;20153;-70
2022/04/10 07:17:14;;;;;;;7.77;1.77;;;;;;;6.47;100.00;106527.78;5026826;28;20025;-70
2022/04/10 07:19:40;;;;;;;5.67;1.67;;;;;;;5.27;100.00;94034.41;5022538;28;20402;-69
2022/04/10 07:24:49;;;;;;;8.27;2.10;;;;;;;5.76;100.00;103406.69;5025740;28;20044;-69
2022/04/10 07:27:15;;;;;;;6.80;1.47;;;;;;;6.06;100.00;98475.44;5030159;28;20022;-69
2022/04/10 07:29:40;;;;;;;7.87;1.57;;;;;;;5.39;100.00;96040.56;5020219;28;20125;-69
2022/04/10 07:32:06;;;;;;;8.77;1.70;;;;;;;4.65;100.00;104206.28;5028405;28;20029;-68
2022/04/10 07:34:32;;;;;;;14.03;1.93;;;;;;;4.80;100.00;118533.22;5030892;28;20072;-68
2022/04/10 07:36:57;;;;;;;5.13;1.90;;;;;;;4.71;100.00;125854.31;5029915;28;20116;-68
2022/04/10 07:39:22;;;;;;;6.60;1.70;;;;;;;4.52;100.00;130156.19;5028803;28;20068;-68
2022/04/10 07:41:48;;;;;;;7.73;1.80;;;;;;;5.27;100.00;136687.41;5028051;28;20503;-68
2022/04/10 07:44:13;;;;;;;10.33;1.80;;;;;;;5.91;100.00;134487.06;5029033;28;20033;-70
2022/04/10 07:49:23;;;;;;;6.83;1.67;;;;;;;6.84;100.00;108261.00;5027055;28;20431;-70
2022/04/10 07:51:48;;;;;;;6.20;1.60;;;;;;;6.50;100.00;101540.13;5029749;28;20033;-70
2022/04/10 07:54:14;;;;;;;11.37;1.63;;;;;;;6.84;100.00;83014.78;5022288;28;20049;-70
2022/04/10 07:56:39;;;;;;;8.10;2.03;;;;;;;6.08;100.00;68062.66;5029825;28;20129;-70
2022/04/10 07:59:05;;;;;;;9.40;1.60;;;;;;;7.55;100.00;86430.91;5028243;28;20030;-70
2022/04/10 08:01:30;;;;;;;6.10;1.33;;;;;;;8.89;100.00;44667.13;5030034;28;20033;-70
2022/04/10 08:03:55;;;;;;;5.73;1.83;;;;;;;8.62;100.00;-11982.03;5020189;28;20545;-70
2022/04/10 08:06:21;;;;;;;6.37;1.63;;;;;;;7.37;100.00;-19359.31;5026364;28;20037;-70
2022/04/10 08:08:46;;;;;;;4.33;1.10;;;;;;;6.00;100.00;11270.31;5026637;28;20033;-69
2022/04/10 08:11:12;;;;;;;7.43;1.20;;;;;;;5.95;100.00;48360.00;5028545;28;20116;-69
2022/04/10 08:13:37;;;;;;;6.53;1.70;;;;;;;6.27;100.00;63807.25;5021120;28;20037;-69
2022/04/10 08:16:03;;;;;;;5.33;1.10;;;;;;;6.67;100.00;62535.72;5025853;28;20041;-71
2022/04/10 08:18:28;;;;;;;6.40;1.33;;;;;;;6.96;100.00;25584.06;5029525;28;20060;-71
2022/04/10 08:20:54;;;;;;;6.57;1.70;;;;;;;6.70;100.00;50062.63;5029599;28;20037;-70
2022/04/10 08:23:19;;;;;;;6.57;1.50;;;;;;;7.53;100.00;23005.66;5028679;28;20099;-70
2022/04/10 08:25:44;;;;;;;6.90;1.80;;;;;;;7.43;100.00;29191.28;5028544;28;20122;-70
2022/04/10 08:28:10;;;;;;;6.97;1.47;;;;;;;6.20;100.00;20999.94;5029139;28;20040;-69
2022/04/10 08:30:35;;;;;;;5.97;1.40;;;;;;;5.77;100.00;38873.16;5029922;28;20051;-68
2022/04/10 08:33:01;;;;;;;6.00;1.50;;;;;;;6.91;100.00;38625.31;5028087;28;20109;-70
2022/04/10 08:35:27;;;;;;;7.43;1.43;;;;;;;7.84;100.00;9367.50;5020479;28;20119;-71
2022/04/10 08:37:52;;;;;;;7.07;1.37;;;;;;;8.59;100.00;-19390.97;5027143;28;20125;-71
2022/04/10 08:40:18;;;;;;;9.20;1.60;;;;;;;10.09;100.00;-19429.84;5020027;28;20053;-71
2022/04/10 08:42:44;;;;;;;4.43;1.20;;;;;;;9.78;100.00;-19421.69;5020527;28;20036;-71
2022/04/10 08:45:10;;;;;;;7.10;1.30;;;;;;;8.80;100.00;-19396.53;5016985;28;20029;-70
2022/04/10 08:47:42;;;;;;;9.07;1.60;;;;;;;7.77;100.00;-19369.75;5026972;28;20092;-69
2022/04/10 08:50:09;;;;;;;7.67;1.30;;;;;;;7.58;100.00;-19364.84;5024102;28;20033;-69
2022/04/10 08:52:35;;;;;;;7.30;1.50;;;;;;;7.32;100.00;-19357.97;5020523;28;20734;-69
2022/04/10 08:55:00;;;;;;;11.00;1.57;;;;;;;7.30;100.00;-19357.59;5014887;28;20490;-68
2022/04/10 08:57:26;;;;;;;8.73;1.80;;;;;;;7.50;100.00;-19362.59;5005430;28;20033;-69
2022/04/10 08:59:55;;;;;;;5.57;1.10;;;;;;;7.64;100.00;-19366.44;5024755;28;20037;-70
2022/04/10 09:02:21;;;;;;;5.13;1.43;;;;;;;6.92;100.00;-19347.56;5023186;28;20094;-70
2022/04/10 09:04:46;;;;;;;4.93;1.13;;;;;;;8.22;100.00;-19381.47;5023164;28;20037;-71
2022/04/10 09:07:12;;;;;;;8.17;1.63;;;;;;;7.92;100.00;-19373.56;5021262;28;20085;-71
2022/04/10 09:09:42;;;;;;;7.70;1.60;;;;;;;9.10;100.00;-19404.16;5022802;28;20037;-71
2022/04/10 09:12:08;;;;;;;5.90;1.17;;;;;;;9.20;100.00;-19406.81;5023462;28;20029;-71
2022/04/10 09:14:37;;;;;;;5.30;1.40;;;;;;;9.36;100.00;-19411.03;5022164;28;20037;-71
2022/04/10 09:17:28;;;;;;;5.10;1.00;;;;;;;8.98;100.00;-19401.00;5026212;28;20041;-72
2022/04/10 09:19:58;;;;;;;4.47;1.20;;;;;;;9.15;100.00;-19405.47;5023463;28;20390;-72
2022/04/10 09:22:28;;;;;;;5.53;1.37;;;;;;;9.35;100.00;-19410.75;5022049;28;20402;-72
2022/04/10 09:25:11;;;;;;;4.47;1.40;;;;;;;9.22;100.00;-19407.34;5027370;28;20037;-71
2022/04/10 09:27:41;;;;;;;9.10;1.55;;;;;;;10.71;100.00;-19445.91;5009799;28;20448;-71
2022/04/10 09:30:17;;;;;;;9.55;1.48;;;;;;;11.30;100.00;-19461.03;5023035;28;20029;-71
2022/04/10 09:32:47;;;;;;;5.93;1.20;;;;;;;9.73;100.00;-19420.38;5025660;28;20370;-72
2022/04/10 09:35:15;;;;;;;5.75;1.30;;;;;;;9.93;100.00;-19425.78;5020478;28;20481;-72
2022/04/10 09:37:52;;;;;;;8.00;1.58;;;;;;;9.17;100.00;-19406.00;5026635;28;20029;-72
2022/04/10 09:40:23;;;;;;;5.45;1.45;;;;;;;10.10;100.00;-19430.00;5019517;28;20068;-72
2022/04/10 09:43:10;;;;;;;5.90;1.20;;;;;;;10.15;100.00;-19431.31;5020676;28;20037;-72
2022/04/10 09:45:43;;;;;;;7.57;1.20;;;;;;;10.48;100.00;-19439.88;5020403;28;20489;-72
2022/04/10 09:48:29;;;;;;;5.05;1.45;;;;;;;10.23;100.00;-19433.41;5022258;28;20108;-72
2022/04/10 09:51:01;;;;;;;6.32;1.00;;;;;;;8.42;100.00;-19386.50;5019846;28;20026;-72
2022/04/10 09:53:27;;;;;;;5.10;1.15;;;;;;;9.56;100.00;-19416.03;5025456;28;20116;-71
2022/04/10 09:55:54;;;;;;;5.80;1.50;;;;;;;9.34;100.00;-19410.50;5030630;28;20029;-72
2022/04/10 09:58:20;;;;;;;4.20;1.20;;;;;;;9.00;100.00;-19401.53;5023907;28;20041;-71
2022/04/10 10:00:46;;;;;;;7.03;1.40;;;;;;;9.13;100.00;-19404.97;5020825;28;20373;-70
2022/04/10 10:03:14;;;;;;;6.03;1.37;;;;;;;8.89;100.00;-19398.63;5023680;28;20485;-69
2022/04/10 10:05:40;;;;;;;6.63;1.33;;;;;;;8.36;100.00;-19384.91;5024648;28;20115;-69
2022/04/10 10:08:07;;;;;;;6.60;1.73;;;;;;;7.09;100.00;-19352.03;5022464;28;20049;-69
2022/04/10 10:10:35;;;;;;;9.27;1.83;;;;;;;6.54;100.00;-19337.63;5019983;28;20444;-69
2022/04/10 10:13:02;;;;;;;9.23;2.20;;;;;;;6.21;100.00;-19329.03;5019397;28;20084;-69
2022/04/10 10:15:28;;;;;;;14.57;2.27;;;;;;;5.81;100.00;-19318.72;5017015;28;20481;-69
2022/04/10 10:17:54;;;;;;;6.40;1.70;;;;;;;5.11;100.00;-19300.59;5020107;28;20037;-70
2022/04/10 10:20:23;;;;;;;15.73;2.20;;;;;;;4.02;100.00;31929.75;5019456;28;20025;-70
2022/04/10 10:22:50;;;;;;;10.93;2.60;;;;;;;3.61;100.00;83213.31;5019687;28;20033;-69
2022/04/10 10:25:27;;;;;;;8.27;2.10;;;;;;;4.29;100.00;115434.75;5002050;28;20035;-69
2022/04/10 10:28:31;;;;;;;11.20;1.90;;;;;;;5.20;100.00;128634.84;5018355;28;20056;-69
2022/04/10 10:31:30;;;;;;;7.77;1.60;;;;;;;5.66;100.00;125389.75;5015037;28;20032;-69
2022/04/10 10:34:01;;;;;;;6.20;1.70;;;;;;;7.57;100.00;128483.75;5015141;28;20030;-69
2022/04/10 10:36:27;;;;;;;7.07;1.80;;;;;;;8.69;100.00;107600.06;5020692;28;20041;-69
2022/04/10 10:38:54;;;;;;;8.07;1.90;;;;;;;9.46;100.00;58214.97;4999609;28;20044;-69
2022/04/10 10:41:19;;;;;;;9.17;2.07;;;;;;;10.38;100.00;15288.28;5019920;28;20433;-68
2022/04/10 10:43:46;;;;;;;7.15;1.60;;;;;;;10.01;100.00;-19427.63;5019657;28;20037;-69
2022/04/10 10:46:21;;;;;;;6.95;1.38;;;;;;;9.14;100.00;-19405.22;5019983;28;20420;-69
2022/04/10 10:48:47;;;;;;;5.18;1.15;;;;;;;9.85;100.00;-19423.66;5013310;28;20389;-69
2022/04/10 10:51:12;;;;;;;4.72;0.98;;;;;;;9.47;100.00;-19413.66;5020898;28;20022;-69
2022/04/10 10:53:55;;;;;;;4.00;1.10;;;;;;;9.20;100.00;-19406.81;5016452;28;20049;-69
2022/04/10 10:56:26;;;;;;;3.50;0.87;;;;;;;7.71;100.00;-19368.03;5020454;28;20072;-68
2022/04/10 10:58:55;;;;;;;3.40;1.05;;;;;;;7.63;100.00;-19366.19;5019723;28;20083;-68
2022/04/10 11:01:26;;;;;;;6.43;1.20;;;;;;;7.80;100.00;-19370.41;5020276;28;20752;-68
2022/04/10 11:04:09;;;;;;;4.78;1.38;;;;;;;7.86;100.00;-19372.09;5021183;28;20440;-68
2022/04/10 11:06:53;;;;;;;6.87;1.50;;;;;;;8.50;100.00;-19388.75;5023998;28;20068;-68
2022/04/10 11:09:22;;;;;;;5.03;1.37;;;;;;;8.17;100.00;-19380.03;5024869;28;20416;-68
2022/04/10 11:11:48;;;;;;;7.10;1.83;;;;;;;7.86;100.00;-19372.09;5025677;28;20030;-68
2022/04/10 11:14:41;;;;;;;6.80;1.60;;;;;;;7.52;100.00;-19363.28;5018009;28;20047;-68
2022/04/10 11:17:20;;;;;;;6.53;1.67;;;;;;;7.22;100.00;-19355.34;5011691;28;20041;-68
2022/04/10 11:19:54;;;;;;;6.33;1.57;;;;;;;7.50;100.00;-19362.75;5020116;28;20036;-68
2022/04/10 11:22:23;;;;;;;7.80;1.90;;;;;;;7.91;100.00;-19373.31;5028330;28;20041;-68
2022/04/10 11:24:54;;;;;;;6.53;1.57;;;;;;;8.27;100.00;-19382.53;5018043;28;20407;-68
2022/04/10 11:27:49;;;;;;;11.50;2.00;;;;;;;8.85;100.00;-19397.56;5022371;28;20434;-68